Time;durP1;ratioP1;P1;durP2;ratioP2;P2;SDS_P1;SDS_P2;PMS_P1;PMS_P2;Temp;Humidity;BMP_temperature;BMP_pressure;BME280_temperature;BME280_humidity;BME280_pressure;Samples;Min_cycle;Max_cycle;Signal;HPM_P1;HPM_P2
2020/12/10 00:02:04;;;;;;;35.40;17.77;;;4.20;99.90;;;;;;5043610;28;20394;-50
2020/12/10 00:04:30;;;;;;;41.57;18.10;;;2.00;99.90;;;;;;5049137;28;20388;-50
2020/12/10 00:06:55;;;;;;;42.67;18.42;;;4.30;99.90;;;;;;5048397;28;20911;-50
2020/12/10 00:09:21;;;;;;;38.25;18.00;;;2.00;99.90;;;;;;5048149;28;20389;-51
2020/12/10 00:11:47;;;;;;;39.10;18.30;;;2.10;99.90;;;;;;5049964;28;20424;-50
2020/12/10 00:14:13;;;;;;;39.13;18.58;;;2.10;99.90;;;;;;5048126;28;21388;-58
2020/12/10 00:16:39;;;;;;;43.53;19.40;;;2.10;99.90;;;;;;5049125;28;20442;-50
2020/12/10 00:19:04;;;;;;;42.30;17.87;;;2.50;99.90;;;;;;5049315;28;20786;-50
2020/12/10 00:21:30;;;;;;;38.63;17.85;;;2.10;99.90;;;;;;5049478;28;20575;-50
2020/12/10 00:23:55;;;;;;;51.77;18.57;;;2.10;99.90;;;;;;5046968;28;20481;-50
2020/12/10 00:26:21;;;;;;;37.60;17.40;;;5.00;99.90;;;;;;5047964;28;20492;-50
2020/12/10 00:28:47;;;;;;;42.88;18.05;;;2.80;99.90;;;;;;5047916;28;20400;-51
2020/12/10 00:31:13;;;;;;;38.67;17.50;;;4.60;99.90;;;;;;5049890;28;20413;-57
2020/12/10 00:33:39;;;;;;;37.67;16.67;;;2.50;99.90;;;;;;5048464;28;20955;-50
2020/12/10 00:36:05;;;;;;;39.60;16.83;;;2.90;99.90;;;;;;5048764;28;20495;-50
2020/12/10 00:38:30;;;;;;;33.72;16.25;;;3.30;99.90;;;;;;5047472;28;21255;-50
2020/12/10 00:40:56;;;;;;;32.93;16.53;;;2.30;99.90;;;;;;5048687;28;20401;-50
2020/12/10 00:43:22;;;;;;;37.15;17.23;;;2.20;99.90;;;;;;5048458;28;20940;-50
2020/12/10 00:45:47;;;;;;;33.75;16.35;;;4.70;99.90;;;;;;5048868;28;20468;-52
2020/12/10 00:48:14;;;;;;;35.53;15.90;;;5.00;99.90;;;;;;5048634;28;20385;-52
2020/12/10 00:50:40;;;;;;;36.15;16.48;;;2.40;99.90;;;;;;5048228;28;20417;-50
2020/12/10 00:53:06;;;;;;;34.75;16.20;;;2.50;99.90;;;;;;5046973;28;20898;-50
2020/12/10 00:55:32;;;;;;;35.22;15.90;;;2.50;99.90;;;;;;5048870;28;20378;-50
2020/12/10 00:57:57;;;;;;;34.85;15.32;;;2.50;99.90;;;;;;5049969;28;20385;-50
2020/12/10 01:00:23;;;;;;;34.73;16.47;;;2.50;99.90;;;;;;5047071;28;20397;-50
2020/12/10 01:02:49;;;;;;;33.88;16.08;;;3.20;99.90;;;;;;5049545;28;20465;-50
2020/12/10 01:05:15;;;;;;;38.55;17.15;;;4.60;99.90;;;;;;5046648;28;20404;-58
2020/12/10 01:07:40;;;;;;;32.75;16.00;;;2.90;99.90;;;;;;5081506;28;20855;-51
2020/12/10 01:10:07;;;;;;;34.10;16.33;;;4.30;99.90;;;;;;5048595;28;20826;-50
2020/12/10 01:12:33;;;;;;;32.65;15.75;;;2.70;99.90;;;;;;5045838;28;20433;-51
2020/12/10 01:14:59;;;;;;;34.88;16.25;;;3.20;99.90;;;;;;5049730;28;20389;-51
2020/12/10 01:17:25;;;;;;;34.25;16.10;;;4.90;99.90;;;;;;5049453;28;20389;-52
2020/12/10 01:19:50;;;;;;;32.35;15.77;;;4.70;99.90;;;;;;5052661;28;20455;-50
2020/12/10 01:22:16;;;;;;;34.80;17.43;;;3.00;99.90;;;;;;5051554;28;20451;-58
2020/12/10 01:24:41;;;;;;;33.93;16.10;;;2.90;99.90;;;;;;5051854;28;20874;-52
2020/12/10 01:27:07;;;;;;;34.58;16.20;;;4.30;99.90;;;;;;5051652;28;20400;-51
2020/12/10 01:29:33;;;;;;;31.70;16.30;;;2.80;99.90;;;;;;5049834;28;20887;-52
2020/12/10 01:31:58;;;;;;;33.70;15.77;;;2.80;99.90;;;;;;5053264;28;20397;-52
2020/12/10 01:34:24;;;;;;;32.72;16.25;;;2.80;99.90;;;;;;5051552;28;20708;-52
2020/12/10 01:36:50;;;;;;;35.53;17.27;;;3.10;99.90;;;;;;5051361;28;20393;-51
2020/12/10 01:39:15;;;;;;;35.42;17.52;;;2.90;99.90;;;;;;5052588;28;20412;-59
2020/12/10 01:41:41;;;;;;;35.83;18.92;;;2.90;99.90;;;;;;5053137;28;20454;-54
2020/12/10 01:44:09;;;;;;;39.00;18.70;;;5.30;99.90;;;;;;5051217;28;20475;-52
2020/12/10 01:46:36;;;;;;;37.97;16.95;;;2.90;99.90;;;;;;5052581;28;20452;-52
2020/12/10 01:49:07;;;;;;;33.13;16.57;;;4.70;99.90;;;;;;5051160;28;20401;-52
2020/12/10 01:51:33;;;;;;;37.05;18.33;;;3.00;99.90;;;;;;5054225;28;20437;-54
2020/12/10 01:54:00;;;;;;;35.05;17.80;;;3.90;99.90;;;;;;5051371;28;20540;-52
2020/12/10 01:56:26;;;;;;;35.03;17.52;;;3.10;99.90;;;;;;5050779;28;20412;-52
2020/12/10 01:58:52;;;;;;;34.63;17.95;;;3.10;99.90;;;;;;5052611;28;20378;-52
2020/12/10 02:01:17;;;;;;;33.20;15.77;;;4.80;99.90;;;;;;5050415;28;20960;-54
2020/12/10 02:03:43;;;;;;;32.30;16.50;;;3.00;99.90;;;;;;5052893;28;20431;-51
2020/12/10 02:06:09;;;;;;;31.48;15.10;;;5.10;99.90;;;;;;5051719;28;20406;-52
2020/12/10 02:08:39;;;;;;;30.98;14.82;;;3.00;99.90;;;;;;5049847;28;20397;-52
2020/12/10 02:11:08;;;;;;;30.00;14.75;;;3.10;99.90;;;;;;5052963;28;20413;-52
2020/12/10 02:13:33;;;;;;;35.00;15.57;;;3.20;99.90;;;;;;5050249;28;20490;-52
2020/12/10 02:15:59;;;;;;;32.03;16.17;;;3.30;99.90;;;;;;5052323;28;20747;-52
2020/12/10 02:18:27;;;;;;;36.15;15.60;;;3.50;99.90;;;;;;5051730;28;20409;-54
2020/12/10 02:20:52;;;;;;;33.05;15.88;;;3.20;99.90;;;;;;5050852;28;20939;-52
2020/12/10 02:23:18;;;;;;;32.57;15.23;;;5.70;99.90;;;;;;5050248;28;20485;-56
2020/12/10 02:25:44;;;;;;;33.35;16.50;;;4.90;99.90;;;;;;5051838;28;20385;-53
2020/12/10 02:28:12;;;;;;;35.13;16.63;;;3.00;99.90;;;;;;5051972;28;20413;-51
2020/12/10 02:30:39;;;;;;;32.10;16.10;;;3.00;99.90;;;;;;5048716;28;20417;-51
2020/12/10 02:33:06;;;;;;;36.17;16.27;;;3.90;99.90;;;;;;5052079;28;20409;-52
2020/12/10 02:35:34;;;;;;;32.83;15.90;;;2.90;99.90;;;;;;5048643;28;20847;-55
2020/12/10 02:38:02;;;;;;;37.67;17.15;;;2.90;99.90;;;;;;5051014;28;20385;-52
2020/12/10 02:40:30;;;;;;;34.88;16.52;;;5.50;99.90;;;;;;5049760;28;20413;-52
2020/12/10 02:42:57;;;;;;;34.20;16.15;;;3.60;99.90;;;;;;5052217;28;20852;-53
2020/12/10 02:45:23;;;;;;;36.67;17.35;;;3.00;99.90;;;;;;5048477;28;20945;-51
2020/12/10 02:47:49;;;;;;;32.15;16.15;;;3.00;99.90;;;;;;5051822;28;20390;-51
2020/12/10 02:50:15;;;;;;;37.05;17.63;;;3.00;99.90;;;;;;5051726;28;20466;-57
2020/12/10 02:52:41;;;;;;;31.13;15.90;;;3.00;99.90;;;;;;5048785;28;20741;-52
2020/12/10 02:55:07;;;;;;;34.63;17.13;;;4.80;99.90;;;;;;5051306;28;21010;-52
2020/12/10 02:57:33;;;;;;;35.57;18.17;;;3.10;99.90;;;;;;5050305;28;20508;-54
2020/12/10 02:59:58;;;;;;;34.72;16.35;;;3.40;99.90;;;;;;5050994;28;20405;-51
2020/12/10 03:02:24;;;;;;;36.17;16.10;;;3.10;99.90;;;;;;5049731;28;20408;-52
2020/12/10 03:04:50;;;;;;;35.00;17.00;;;3.00;99.90;;;;;;5052064;28;20381;-52
2020/12/10 03:07:16;;;;;;;38.28;17.75;;;4.10;99.90;;;;;;5051664;28;20432;-60
2020/12/10 03:09:42;;;;;;;34.63;15.47;;;3.00;99.90;;;;;;5049040;28;20400;-52
2020/12/10 03:12:09;;;;;;;30.27;16.20;;;3.00;99.90;;;;;;5051806;28;20378;-52
2020/12/10 03:14:35;;;;;;;35.72;17.52;;;3.00;99.90;;;;;;5048483;28;20403;-52
2020/12/10 03:17:01;;;;;;;30.90;15.50;;;2.80;99.90;;;;;;5051166;28;20389;-52
2020/12/10 03:19:26;;;;;;;34.70;16.65;;;2.80;99.90;;;;;;5051117;28;20385;-53
2020/12/10 03:21:52;;;;;;;35.70;17.10;;;4.90;99.90;;;;;;5050920;28;20882;-52
2020/12/10 03:24:17;;;;;;;35.38;15.93;;;5.40;99.90;;;;;;5050739;28;20408;-59
2020/12/10 03:26:43;;;;;;;37.00;17.27;;;3.00;99.90;;;;;;5050133;28;20439;-52
2020/12/10 03:29:09;;;;;;;37.07;17.30;;;4.90;99.90;;;;;;5051276;28;20385;-52
2020/12/10 03:31:36;;;;;;;34.25;16.67;;;4.30;99.90;;;;;;5050468;28;20560;-52
2020/12/10 03:34:04;;;;;;;34.42;17.23;;;4.30;99.90;;;;;;5050780;28;20401;-52
2020/12/10 03:36:54;;;;;;;29.55;14.00;;;3.20;99.90;;;;;;5053042;28;20393;-52
2020/12/10 03:39:21;;;;;;;33.03;16.50;;;3.20;99.90;;;;;;5048841;28;20393;-54
2020/12/10 03:41:48;;;;;;;33.85;16.15;;;3.50;99.90;;;;;;5049502;28;20386;-52
2020/12/10 03:44:14;;;;;;;31.63;15.48;;;4.40;99.90;;;;;;5050522;28;20373;-54
2020/12/10 03:46:40;;;;;;;34.47;16.05;;;3.90;99.90;;;;;;5050603;28;20378;-52
2020/12/10 03:49:07;;;;;;;34.63;17.30;;;3.30;99.90;;;;;;5051232;28;20386;-52
2020/12/10 03:51:33;;;;;;;34.15;16.33;;;3.20;99.90;;;;;;5049664;28;20508;-52
2020/12/10 03:53:59;;;;;;;35.70;15.93;;;5.80;99.90;;;;;;5050711;28;20390;-52
2020/12/10 03:56:25;;;;;;;33.50;16.83;;;3.20;99.90;;;;;;5050304;28;20782;-52
2020/12/10 03:58:51;;;;;;;33.75;16.08;;;5.60;99.90;;;;;;5050442;28;20399;-53
2020/12/10 04:01:17;;;;;;;39.00;18.05;;;3.10;99.90;;;;;;5050448;28;20844;-59
2020/12/10 04:03:43;;;;;;;34.05;16.50;;;3.10;99.90;;;;;;5050409;28;20863;-52
2020/12/10 04:06:09;;;;;;;35.40;16.65;;;3.40;99.90;;;;;;5049382;28;20388;-53
2020/12/10 04:08:36;;;;;;;34.13;16.00;;;3.00;99.90;;;;;;5049814;28;20380;-50
2020/12/10 04:11:02;;;;;;;35.88;16.40;;;3.00;99.90;;;;;;5050146;28;20428;-50
2020/12/10 04:13:27;;;;;;;35.33;17.33;;;3.80;99.90;;;;;;5048584;28;20397;-50
2020/12/10 04:15:53;;;;;;;34.33;16.63;;;3.10;99.90;;;;;;5049398;28;20393;-50
2020/12/10 04:18:19;;;;;;;34.58;18.10;;;5.10;99.90;;;;;;5049572;28;20378;-58
2020/12/10 04:20:44;;;;;;;33.40;16.40;;;3.00;99.90;;;;;;5049644;28;20382;-50
2020/12/10 04:23:10;;;;;;;36.03;16.37;;;4.30;99.90;;;;;;5049160;28;20416;-50
2020/12/10 04:25:35;;;;;;;34.88;16.98;;;2.90;99.90;;;;;;5049446;28;20373;-50
2020/12/10 04:28:01;;;;;;;38.03;17.10;;;3.30;99.90;;;;;;5050376;28;20728;-50
2020/12/10 04:30:27;;;;;;;34.70;16.33;;;3.00;99.90;;;;;;5049144;28;20432;-50
2020/12/10 04:32:52;;;;;;;31.73;16.20;;;3.30;99.90;;;;;;5049996;28;20416;-50
2020/12/10 04:35:18;;;;;;;35.90;16.90;;;3.70;99.90;;;;;;5049723;28;20374;-57
2020/12/10 04:37:43;;;;;;;37.03;17.13;;;2.90;99.90;;;;;;5050111;28;20390;-50
2020/12/10 04:40:10;;;;;;;36.63;17.83;;;3.10;99.90;;;;;;5050059;28;20417;-51
2020/12/10 04:42:37;;;;;;;33.50;16.90;;;2.80;99.90;;;;;;5047752;28;20396;-50
2020/12/10 04:45:04;;;;;;;37.63;17.40;;;3.60;99.90;;;;;;5049883;28;20385;-50
2020/12/10 04:47:30;;;;;;;39.55;17.85;;;2.90;99.90;;;;;;5049634;28;20858;-50
2020/12/10 04:50:00;;;;;;;37.00;17.50;;;2.80;99.90;;;;;;5049943;28;20417;-51
2020/12/10 04:52:27;;;;;;;37.53;17.27;;;3.50;99.90;;;;;;5048723;28;20451;-51
2020/12/10 04:54:53;;;;;;;40.63;16.63;;;4.10;99.90;;;;;;5049474;28;20405;-51
2020/12/10 04:57:20;;;;;;;35.97;17.55;;;2.50;99.90;;;;;;5049365;28;20390;-59
2020/12/10 04:59:45;;;;;;;35.25;17.23;;;2.50;99.90;;;;;;5049690;28;20376;-51
2020/12/10 05:02:12;;;;;;;33.45;17.67;;;2.50;99.90;;;;;;5049642;28;20381;-51
2020/12/10 05:04:38;;;;;;;37.22;17.08;;;4.20;99.90;;;;;;5057157;28;20383;-50
2020/12/10 05:07:04;;;;;;;39.55;17.35;;;4.10;99.90;;;;;;5057463;28;20376;-50
2020/12/10 05:09:30;;;;;;;39.17;17.48;;;2.40;99.90;;;;;;5068231;28;20723;-51
2020/12/10 05:11:56;;;;;;;37.03;18.10;;;2.30;99.90;;;;;;5069777;28;20814;-51
2020/12/10 05:14:22;;;;;;;43.22;18.48;;;2.30;99.90;;;;;;5060633;28;20381;-50
2020/12/10 05:17:09;;;;;;;37.80;18.58;;;3.90;99.90;;;;;;5048227;28;20398;-50
2020/12/10 05:19:34;;;;;;;41.88;18.00;;;4.30;99.90;;;;;;5049501;28;20897;-50
2020/12/10 05:22:05;;;;;;;38.75;18.83;;;2.20;99.90;;;;;;5047762;28;20524;-55
2020/12/10 05:24:31;;;;;;;38.93;18.70;;;2.10;99.90;;;;;;5037526;28;20584;-52
2020/12/10 05:27:20;;;;;;;39.25;17.83;;;2.10;99.90;;;;;;5046612;28;20385;-51
2020/12/10 05:29:47;;;;;;;46.13;19.08;;;3.70;99.90;;;;;;5047585;28;20390;-51
2020/12/10 05:32:34;;;;;;;42.97;18.60;;;3.10;99.90;;;;;;5048946;28;20840;-52
2020/12/10 05:35:17;;;;;;;40.42;19.08;;;2.20;99.90;;;;;;5078637;28;20972;-51
2020/12/10 05:37:43;;;;;;;41.20;19.10;;;2.30;99.90;;;;;;5048649;28;20397;-52
2020/12/10 05:40:09;;;;;;;37.03;16.70;;;2.30;99.90;;;;;;5040785;28;20768;-52
2020/12/10 05:42:49;;;;;;;38.80;17.75;;;2.90;99.90;;;;;;5033179;28;20375;-52
2020/12/10 05:45:20;;;;;;;39.47;18.37;;;2.40;99.90;;;;;;5036779;28;20397;-51
2020/12/10 05:47:51;;;;;;;44.90;19.77;;;2.40;99.90;;;;;;5049415;28;20405;-52
2020/12/10 05:50:25;;;;;;;50.42;22.55;;;4.00;99.90;;;;;;5046752;28;20418;-52
2020/12/10 05:53:12;;;;;;;38.50;18.55;;;2.30;99.90;;;;;;5047955;28;20484;-51
2020/12/10 05:55:40;;;;;;;40.58;19.23;;;3.20;99.90;;;;;;5047590;28;20910;-53
2020/12/10 05:58:07;;;;;;;41.25;19.38;;;2.40;99.90;;;;;;5081038;28;20387;-52
2020/12/10 06:00:35;;;;;;;36.65;18.00;;;2.20;99.90;;;;;;5048748;28;20401;-51
2020/12/10 06:03:01;;;;;;;39.72;18.50;;;3.50;99.90;;;;;;5051332;28;20763;-52
2020/12/10 06:05:28;;;;;;;38.33;17.40;;;4.30;99.90;;;;;;5050414;28;20385;-51
2020/12/10 06:08:04;;;;;;;36.03;17.60;;;3.90;99.90;;;;;;5052907;28;20373;-52
2020/12/10 06:10:34;;;;;;;39.30;18.63;;;2.00;99.90;;;;;;5041234;28;20429;-54
2020/12/10 06:13:00;;;;;;;40.65;18.15;;;2.10;99.90;;;;;;5051717;28;20754;-52
2020/12/10 06:15:27;;;;;;;39.38;18.70;;;2.90;99.90;;;;;;5050732;28;20407;-52
2020/12/10 06:18:11;;;;;;;37.42;18.42;;;2.70;99.90;;;;;;5050777;28;20954;-52
2020/12/10 06:20:39;;;;;;;38.42;18.23;;;3.90;99.90;;;;;;5043581;28;20398;-52
2020/12/10 06:23:30;;;;;;;38.58;17.50;;;2.10;99.90;;;;;;5038015;28;20414;-52
2020/12/10 06:25:58;;;;;;;37.75;19.25;;;3.90;99.90;;;;;;5048527;28;20398;-52
2020/12/10 06:28:25;;;;;;;40.53;19.00;;;2.20;99.90;;;;;;5049883;28;20397;-52
2020/12/10 06:31:04;;;;;;;37.22;18.35;;;2.20;99.90;;;;;;5052059;28;20405;-53
2020/12/10 06:33:39;;;;;;;37.83;18.43;;;4.40;99.90;;;;;;5049119;28;20440;-54
2020/12/10 06:36:22;;;;;;;41.42;19.08;;;2.30;99.90;;;;;;5051015;28;20450;-52
2020/12/10 06:38:49;;;;;;;39.90;18.92;;;2.30;99.90;;;;;;5049437;28;20409;-53
2020/12/10 06:41:15;;;;;;;42.70;19.40;;;2.40;99.90;;;;;;5050926;28;20417;-51
2020/12/10 06:43:41;;;;;;;40.83;18.88;;;2.30;99.90;;;;;;5050254;28;20429;-51
2020/12/10 06:46:07;;;;;;;42.65;19.50;;;2.30;99.90;;;;;;5050533;28;20389;-51
2020/12/10 06:48:43;;;;;;;34.67;18.88;;;3.50;99.90;;;;;;5050581;28;20403;-52
2020/12/10 06:51:16;;;;;;;41.88;19.48;;;2.40;99.90;;;;;;5051182;28;20486;-52
2020/12/10 06:54:01;;;;;;;43.65;20.00;;;2.30;99.90;;;;;;5050043;28;20753;-52
2020/12/10 06:56:28;;;;;;;41.30;18.67;;;2.40;99.90;;;;;;5046065;28;21025;-52
2020/12/10 06:58:57;;;;;;;43.97;19.38;;;2.30;99.90;;;;;;5045362;28;20774;-52
2020/12/10 07:01:27;;;;;;;38.60;18.20;;;4.20;99.90;;;;;;5049697;28;20489;-53
2020/12/10 07:04:19;;;;;;;38.20;18.50;;;2.40;99.90;;;;;;5043766;28;20489;-52
2020/12/10 07:07:14;;;;;;;41.95;19.98;;;4.90;99.90;;;;;;5050469;28;20407;-52
2020/12/10 07:10:02;;;;;;;37.63;19.77;;;2.40;99.90;;;;;;5048546;28;20851;-52
2020/12/10 07:12:32;;;;;;;38.53;18.92;;;2.30;99.90;;;;;;5049098;28;20405;-52
2020/12/10 07:15:13;;;;;;;39.53;19.13;;;2.50;99.90;;;;;;5048766;28;20397;-52
2020/12/10 07:17:39;;;;;;;37.75;18.75;;;2.50;99.90;;;;;;5048117;28;20480;-52
2020/12/10 07:20:05;;;;;;;37.90;18.10;;;2.50;99.90;;;;;;5049703;28;20389;-54
2020/12/10 07:22:31;;;;;;;38.60;19.40;;;5.30;99.90;;;;;;5048385;28;20978;-52
2020/12/10 07:24:56;;;;;;;36.95;18.17;;;2.80;99.90;;;;;;5050865;28;20382;-51
2020/12/10 07:27:25;;;;;;;38.20;18.08;;;5.40;99.90;;;;;;5048302;28;20752;-60
2020/12/10 07:29:51;;;;;;;31.10;16.85;;;2.70;99.90;;;;;;5051081;28;20384;-52
2020/12/10 07:32:17;;;;;;;37.80;17.80;;;3.10;99.90;;;;;;5049145;28;20570;-52
2020/12/10 07:34:44;;;;;;;31.80;16.47;;;2.70;99.90;;;;;;5050295;28;20456;-52
2020/12/10 07:37:12;;;;;;;34.93;17.20;;;2.80;99.90;;;;;;5051260;28;20385;-52
2020/12/10 07:39:38;;;;;;;34.07;16.40;;;2.70;99.90;;;;;;5049885;28;20581;-52
2020/12/10 07:42:04;;;;;;;35.30;17.30;;;2.90;99.90;;;;;;5051155;28;20847;-52
2020/12/10 07:44:31;;;;;;;33.10;17.13;;;2.60;99.90;;;;;;5049926;28;20392;-54
2020/12/10 07:46:58;;;;;;;33.58;16.23;;;2.90;99.90;;;;;;5050569;28;20386;-51
2020/12/10 07:49:31;;;;;;;33.42;16.52;;;2.50;99.90;;;;;;5081817;28;20389;-52
2020/12/10 07:52:15;;;;;;;33.80;16.50;;;2.40;99.90;;;;;;5049577;28;20911;-51
2020/12/10 07:54:44;;;;;;;37.17;17.95;;;2.50;99.90;;;;;;5048779;28;20417;-51
2020/12/10 07:57:39;;;;;;;39.25;18.67;;;2.40;99.90;;;;;;5050883;28;20389;-51
2020/12/10 08:00:17;;;;;;;37.00;18.02;;;2.60;99.90;;;;;;5049696;28;20493;-51
2020/12/10 08:03:05;;;;;;;33.60;17.70;;;2.70;99.90;;;;;;5049971;28;20385;-52
2020/12/10 08:05:32;;;;;;;32.33;17.38;;;2.70;99.90;;;;;;5049901;28;20955;-51
2020/12/10 08:07:59;;;;;;;35.67;17.00;;;3.30;99.90;;;;;;5050547;28;20385;-52
2020/12/10 08:10:35;;;;;;;36.38;18.00;;;4.10;99.90;;;;;;5048229;28;20445;-52
2020/12/10 08:13:15;;;;;;;32.38;16.88;;;2.80;99.90;;;;;;5050550;28;20392;-52
2020/12/10 08:15:49;;;;;;;38.13;17.70;;;2.70;99.90;;;;;;5048168;28;20460;-52
2020/12/10 08:18:18;;;;;;;33.63;17.75;;;2.90;99.90;;;;;;5050615;28;20381;-55
2020/12/10 08:20:49;;;;;;;39.28;17.83;;;2.70;99.90;;;;;;5047543;28;20941;-52
2020/12/10 08:23:16;;;;;;;32.25;17.42;;;3.80;99.90;;;;;;5049627;28;20424;-51
2020/12/10 08:25:43;;;;;;;34.58;17.88;;;2.80;99.90;;;;;;5049497;28;20767;-52
2020/12/10 08:28:11;;;;;;;36.50;18.13;;;4.20;99.90;;;;;;5049592;28;20409;-51
2020/12/10 08:30:48;;;;;;;40.53;18.95;;;2.70;99.90;;;;;;5048956;28;20405;-52
2020/12/10 08:33:14;;;;;;;35.40;17.45;;;2.70;99.90;;;;;;5048733;28;20501;-52
2020/12/10 08:35:44;;;;;;;36.70;17.98;;;3.20;99.90;;;;;;5048046;28;20464;-52
2020/12/10 08:38:10;;;;;;;35.17;18.20;;;4.10;99.90;;;;;;5049953;28;20385;-53
2020/12/10 08:40:36;;;;;;;35.25;18.45;;;2.60;99.90;;;;;;5047613;28;20388;-52
2020/12/10 08:43:13;;;;;;;32.88;18.23;;;2.50;99.90;;;;;;5049770;28;20378;-52
2020/12/10 08:45:44;;;;;;;35.42;18.88;;;2.60;99.90;;;;;;5049094;28;20377;-54
2020/12/10 08:48:17;;;;;;;38.22;19.10;;;2.70;99.90;;;;;;5048796;28;20433;-52
2020/12/10 08:50:50;;;;;;;34.80;17.67;;;2.80;99.90;;;;;;5048753;28;20413;-53
2020/12/10 08:53:16;;;;;;;31.05;16.30;;;3.50;99.90;;;;;;5048912;28;20773;-52
2020/12/10 08:55:51;;;;;;;32.13;15.77;;;2.70;99.90;;;;;;5047649;28;20532;-54
2020/12/10 08:58:21;;;;;;;29.65;15.85;;;2.80;99.90;;;;;;5049845;28;20390;-52
2020/12/10 09:00:48;;;;;;;31.90;17.40;;;5.00;99.90;;;;;;5049130;28;20747;-52
2020/12/10 09:03:14;;;;;;;31.77;16.77;;;2.70;99.90;;;;;;5049807;28;20374;-52
2020/12/10 09:05:41;;;;;;;32.22;15.95;;;2.90;99.90;;;;;;5048783;28;20457;-52
2020/12/10 09:08:07;;;;;;;30.50;15.40;;;2.90;99.90;;;;;;5047869;28;20382;-52
2020/12/10 09:10:33;;;;;;;27.20;15.10;;;2.80;99.90;;;;;;5048693;28;20409;-52
2020/12/10 09:12:59;;;;;;;29.42;15.20;;;4.60;99.90;;;;;;5049619;28;20413;-52
2020/12/10 09:15:26;;;;;;;26.83;15.15;;;4.60;99.90;;;;;;5047356;28;20416;-52
2020/12/10 09:17:51;;;;;;;31.63;13.93;;;5.30;99.90;;;;;;5049870;28;20384;-52
2020/12/10 09:20:18;;;;;;;31.52;16.48;;;3.00;99.90;;;;;;5048044;28;21028;-52
2020/12/10 09:22:44;;;;;;;29.83;15.23;;;3.00;99.90;;;;;;5048775;28;20396;-52
2020/12/10 09:25:10;;;;;;;25.50;13.57;;;3.10;99.90;;;;;;5049119;28;20385;-52
2020/12/10 09:27:36;;;;;;;31.70;15.63;;;3.90;99.90;;;;;;5045827;28;20400;-53
2020/12/10 09:30:04;;;;;;;27.97;14.00;;;3.20;99.90;;;;;;5047740;28;20756;-52
2020/12/10 09:32:33;;;;;;;24.40;13.83;;;3.20;99.90;;;;;;5046767;28;20946;-52
2020/12/10 09:34:59;;;;;;;25.20;13.68;;;3.30;99.90;;;;;;5049374;28;20431;-52
2020/12/10 09:37:25;;;;;;;26.45;15.15;;;3.40;99.90;;;;;;5048270;28;20472;-52
2020/12/10 09:39:51;;;;;;;24.58;12.63;;;3.50;99.90;;;;;;5048568;28;20465;-52
2020/12/10 09:42:16;;;;;;;28.10;14.93;;;3.50;99.90;;;;;;5033210;28;20386;-52
2020/12/10 09:44:42;;;;;;;26.03;15.30;;;3.30;99.90;;;;;;5032043;28;20390;-52
2020/12/10 09:47:10;;;;;;;23.30;12.40;;;3.40;99.90;;;;;;5033312;28;20997;-52
2020/12/10 09:49:36;;;;;;;24.33;13.13;;;3.40;99.90;;;;;;5032165;28;20492;-54
2020/12/10 09:52:03;;;;;;;20.55;11.68;;;3.50;99.90;;;;;;5031556;28;20422;-52
2020/12/10 09:57:32;;;;;;;15.85;9.25;;;3.50;99.90;;;;;;5033288;28;20833;-52
2020/12/10 10:00:05;;;;;;;16.63;8.90;;;3.50;99.90;;;;;;5032963;28;20866;-52
2020/12/10 10:02:31;;;;;;;15.57;8.75;;;3.50;99.90;;;;;;5032196;28;20433;-54
2020/12/10 10:04:57;;;;;;;19.92;9.38;;;3.50;99.90;;;;;;5031261;28;20395;-53
2020/12/10 10:07:22;;;;;;;18.17;9.60;;;3.40;99.90;;;;;;5048304;28;20385;-63
2020/12/10 10:09:49;;;;;;;21.17;10.85;;;3.40;99.90;;;;;;5052852;28;20381;-52
2020/12/10 10:12:15;;;;;;;19.90;10.97;;;3.40;99.90;;;;;;5052990;28;20409;-53
2020/12/10 10:14:41;;;;;;;20.90;10.83;;;3.40;99.90;;;;;;5050494;28;20394;-53
2020/12/10 10:17:09;;;;;;;20.30;11.45;;;3.30;99.90;;;;;;5051444;28;20440;-52
2020/12/10 10:19:35;;;;;;;26.02;11.82;;;3.90;99.90;;;;;;5051622;28;20382;-52
2020/12/10 10:22:01;;;;;;;21.92;11.57;;;4.70;99.90;;;;;;5052371;28;20423;-52
2020/12/10 10:24:28;;;;;;;19.25;10.40;;;3.30;99.90;;;;;;5051679;28;20796;-52
2020/12/10 10:26:54;;;;;;;22.67;11.20;;;3.20;99.90;;;;;;5052438;28;20464;-54
2020/12/10 10:29:21;;;;;;;24.77;11.63;;;3.30;99.90;;;;;;5050950;28;20476;-54
2020/12/10 10:31:51;;;;;;;20.55;11.30;;;3.30;99.90;;;;;;5051595;28;20467;-52
2020/12/10 10:34:17;;;;;;;17.40;9.65;;;3.50;99.90;;;;;;5052440;28;20409;-52
2020/12/10 10:36:44;;;;;;;20.20;10.50;;;3.60;99.90;;;;;;5051201;28;20637;-52
2020/12/10 10:39:10;;;;;;;22.27;11.23;;;3.50;99.90;;;;;;5052889;28;20486;-53
2020/12/10 10:41:40;;;;;;;18.90;10.57;;;3.60;99.90;;;;;;5051651;28;20385;-53
2020/12/10 10:44:06;;;;;;;18.60;9.65;;;4.50;99.90;;;;;;5051025;28;20717;-53
2020/12/10 10:46:32;;;;;;;18.67;10.57;;;3.60;99.90;;;;;;5051587;28;20427;-53
2020/12/10 10:48:58;;;;;;;19.37;10.37;;;3.70;99.90;;;;;;5051596;28;20381;-52
2020/12/10 10:51:24;;;;;;;17.37;8.93;;;3.70;99.90;;;;;;5050844;28;20985;-54
2020/12/10 10:53:49;;;;;;;18.15;10.35;;;3.80;99.90;;;;;;5052132;28;20385;-52
2020/12/10 10:56:20;;;;;;;19.02;9.40;;;3.90;99.90;;;;;;5051921;28;20424;-53
2020/12/10 10:58:45;;;;;;;17.50;9.23;;;4.10;99.90;;;;;;5051294;28;20461;-52
2020/12/10 11:01:11;;;;;;;18.95;9.00;;;4.20;99.90;;;;;;5052049;28;20817;-52
2020/12/10 11:03:37;;;;;;;18.93;8.47;;;4.30;99.90;;;;;;5049537;28;20393;-52
2020/12/10 11:06:02;;;;;;;13.70;7.50;;;4.20;99.90;;;;;;5051588;28;20521;-52
2020/12/10 11:08:28;;;;;;;15.30;8.48;;;4.10;99.90;;;;;;5051229;28;20377;-52
2020/12/10 11:10:53;;;;;;;15.70;8.40;;;4.20;99.90;;;;;;5051560;28;20910;-52
2020/12/10 11:13:19;;;;;;;14.55;7.40;;;4.40;99.90;;;;;;5051453;28;20409;-52
2020/12/10 11:15:45;;;;;;;14.80;8.60;;;4.50;99.90;;;;;;5050506;28;20537;-52
2020/12/10 11:18:11;;;;;;;15.15;8.13;;;4.50;99.90;;;;;;5049604;28;20831;-52
2020/12/10 11:20:36;;;;;;;12.18;6.10;;;4.50;99.90;;;;;;5049004;28;20385;-52
2020/12/10 11:23:02;;;;;;;13.20;6.60;;;4.00;99.90;;;;;;5050278;28;20390;-53
2020/12/10 11:25:28;;;;;;;11.30;6.10;;;3.90;99.90;;;;;;5050434;28;20713;-53
2020/12/10 11:27:53;;;;;;;12.10;6.70;;;4.00;99.90;;;;;;5050491;28;20472;-52
2020/12/10 11:30:19;;;;;;;12.68;6.60;;;4.10;99.90;;;;;;5050190;28;20518;-53
2020/12/10 11:32:46;;;;;;;11.87;6.10;;;4.20;99.90;;;;;;5048489;28;20480;-52
2020/12/10 11:35:11;;;;;;;13.98;7.20;;;4.40;99.90;;;;;;5049483;28;20378;-52
2020/12/10 11:37:37;;;;;;;13.40;7.10;;;4.40;99.90;;;;;;5048648;28;20752;-53
2020/12/10 11:40:03;;;;;;;15.30;7.05;;;4.60;99.90;;;;;;5049945;28;20377;-52
2020/12/10 11:42:29;;;;;;;11.95;6.30;;;5.20;99.90;;;;;;5048474;28;20389;-53
2020/12/10 11:44:56;;;;;;;14.52;7.00;;;4.70;99.90;;;;;;5049703;28;20400;-52
2020/12/10 11:47:22;;;;;;;14.05;8.50;;;4.70;99.90;;;;;;5048841;28;20450;-53
2020/12/10 11:49:48;;;;;;;14.15;8.10;;;4.70;99.90;;;;;;5050007;28;20863;-53
2020/12/10 11:52:13;;;;;;;19.07;9.97;;;4.80;99.90;;;;;;5049342;28;20428;-53
2020/12/10 11:54:39;;;;;;;13.57;6.90;;;4.80;99.90;;;;;;5049633;28;20547;-53
2020/12/10 11:57:04;;;;;;;17.87;9.10;;;4.90;99.90;;;;;;5050778;28;20771;-56
2020/12/10 11:59:30;;;;;;;13.50;7.73;;;4.90;99.90;;;;;;5048093;28;20515;-51
2020/12/10 12:01:55;;;;;;;13.77;7.38;;;4.90;99.90;;;;;;5050280;28;20388;-51
2020/12/10 12:04:21;;;;;;;14.40;8.70;;;5.10;99.90;;;;;;5047316;28;20393;-60
2020/12/10 12:06:47;;;;;;;12.52;6.55;;;5.00;99.90;;;;;;5049097;28;20460;-51
2020/12/10 12:09:12;;;;;;;13.20;6.60;;;4.90;99.90;;;;;;5050361;28;20742;-51
2020/12/10 12:11:38;;;;;;;14.85;6.95;;;4.80;99.90;;;;;;5047563;28;20497;-51
2020/12/10 12:14:04;;;;;;;12.82;6.75;;;4.80;99.90;;;;;;5048687;28;20496;-51
2020/12/10 12:16:29;;;;;;;15.73;8.47;;;4.90;99.90;;;;;;5052134;28;20940;-53
2020/12/10 12:18:55;;;;;;;12.02;7.15;;;5.00;99.90;;;;;;5055311;28;20522;-51
2020/12/10 12:21:28;;;;;;;15.13;7.60;;;6.30;99.90;;;;;;5058802;28;20407;-51
2020/12/10 12:23:54;;;;;;;16.15;8.50;;;4.80;99.90;;;;;;5058619;28;20879;-51
2020/12/10 12:26:28;;;;;;;14.40;7.60;;;4.90;99.90;;;;;;5055206;28;20536;-59
2020/12/10 12:28:53;;;;;;;15.52;7.63;;;4.90;99.90;;;;;;5057376;28;20408;-51
2020/12/10 12:31:19;;;;;;;13.85;7.40;;;5.50;99.90;;;;;;5060137;28;20444;-52
2020/12/10 12:33:45;;;;;;;19.88;9.95;;;4.80;99.90;;;;;;5054969;28;20930;-52
2020/12/10 12:36:11;;;;;;;13.60;8.10;;;4.90;99.90;;;;;;5059512;28;20382;-52
2020/12/10 12:38:37;;;;;;;15.40;8.70;;;4.80;99.90;;;;;;5055415;28;20948;-52
2020/12/10 12:41:03;;;;;;;16.77;9.63;;;4.70;99.90;;;;;;5058094;28;20467;-52
2020/12/10 12:43:29;;;;;;;14.93;8.35;;;4.70;99.90;;;;;;5055914;28;20381;-52
2020/12/10 12:45:55;;;;;;;14.40;7.72;;;4.70;99.90;;;;;;5059249;28;20895;-53